首页
METAR-TAF:

METAR-TAF

机场 :

沙希德·阿亚图拉·达斯特盖卜国际机场

設拉子, 伊朗

纬度: 29-32N, 经度: 052-35E, 海拔: 1486米

当前天气观测

该预报发布于39分钟前的06:00 UTC
静风
温度 13°C
湿度 51%
气压 1019 hPa
能见度10公里或以上
1500米以下无云,无积雨云

METAR: OISS 290600Z 00000KT CAVOK 13/03 Q1018 A3008

时间: 10:09 (06:39 UTC)

预报

该预报发布于1小时和9分钟前的05:30 UTC
预报有效从29日的 06点(UTC)到 01日的 12点(UTC)
风速6节,风向西转西南
能見度: 8000

TAF: OISS 290530Z 2906/0112 24006KT 8000 NSC

超过4000个机场的气象观测和天气预报(METAR&TAF报告)。

可查询的气象台以黄色和红色小点在地图上表示。

将鼠标移到小点上方,可查看气象台名称。

然后点击查看天气观测和预报。

如需切换地图:点击带黑十字的绿色按钮放大地图;点击带横线的绿色按钮缩小地图;或者点击绿色箭头查看邻近地区的地图。


METAR-TAF: